Depesze METAR lotnisk w Polsce

METAR – format kodowanego raportu o pogodzie używany w meteorologii lotniczej i prognozie pogody. METAR jest akronimem od ang. Meteorological Aerodrome Report. Typowy METAR zawiera informację o temperaturze, ciśnieniu, temperaturze punktu rosy, sile i kierunku wiatru, opadzie, pokrywie chmur, wysokości podstawy chmur, widzialności, lecz może zawierać też inne informacje (np. stan dróg startowych).

Warszawa-Okęcie (EPWA)

METAR = EPWA 250430Z 19003KT 9999 BKN018 01/M01 Q0998 NOSIG

STACJA......... EPWA - Warszawa-Okęcie (WAW)
POMIAR......... Mon Jan 25, 05:30 CET
WIATR.......... południowy (S) z prędkością 6 km/h
WIDZIALNOŚĆ.... powyżej 10 kilometrów
CHMURY......... zachmurzenie średnie (5/8-7/8)
TEMPERATURA.... 1°C
T.PUNKTU ROSY.. -1°C
WILGOTNOŚĆ..... 87%
T.ODCZUWALNA... -1°C
CIŚNIENIE...... 998 hPa
CIŚN.BEZWZGL... 984 hPa
PROGNOZA....... bez nagłych zmian w ciągu 2h

Sprawdź też: Prognoza pogody Warszawa

Warszawa-Modlin (EPMO)

METAR = 

STACJA......... EPMO - Warszawa-Modlin (WMI)
POMIAR......... Thu Jan 1, 02:00 CET
BŁĄD........... Dane niedostępne.

Sprawdź też: Prognoza pogody Nowy Dwór Mazowiecki

Kraków-Balice (EPKK)

METAR = EPKK 250430Z 28009KT CAVOK 00/M04 Q0997

STACJA......... EPKK - Kraków-Balice (KRK)
POMIAR......... Mon Jan 25, 05:30 CET
WIATR.......... zachodni (W) z prędkością 17 km/h
WIDZIALNOŚĆ.... powyżej 10 kilometrów
CHMURY......... bezchmurne niebo
TEMPERATURA.... 0°C
T.PUNKTU ROSY.. -4°C
WILGOTNOŚĆ..... 75%
T.ODCZUWALNA... -4°C
CIŚNIENIE...... 997 hPa
CIŚN.BEZWZGL... 967 hPa

Sprawdź też: Prognoza pogody Kraków

Łódź-Lublinek (EPLL)

METAR = EPLL 250430Z 23003KT 180V270 7000 SCT006 BKN009 M00/M02 Q0997

STACJA......... EPLL - Łódź-Lublinek (LCJ)
POMIAR......... Mon Jan 25, 05:30 CET
WIATR.......... południowo-zachodni (SW) z prędkością 6 km/h
WIDZIALNOŚĆ.... 7000 metrów
CHMURY......... zachmurzenie średnie (5/8-7/8)
TEMPERATURA.... 0°C
T.PUNKTU ROSY.. -2°C
WILGOTNOŚĆ..... 87%
T.ODCZUWALNA... -2°C
CIŚNIENIE...... 997 hPa
CIŚN.BEZWZGL... 974 hPa

Sprawdź też: Prognoza pogody Łódź

Wrocław-Strachowice (EPWR)

METAR = EPWR 250430Z 31007KT 9999 FEW011 BKN020 00/M01 Q0999

STACJA......... EPWR - Wrocław-Strachowice (WRO)
POMIAR......... Mon Jan 25, 05:30 CET
WIATR.......... północno zachodni (NW) z prędkością 13 km/h
WIDZIALNOŚĆ.... powyżej 10 kilometrów
CHMURY......... zachmurzenie średnie (5/8-7/8)
TEMPERATURA.... 0°C
T.PUNKTU ROSY.. -1°C
WILGOTNOŚĆ..... 93%
T.ODCZUWALNA... -4°C
CIŚNIENIE...... 999 hPa
CIŚN.BEZWZGL... 984 hPa

Sprawdź też: Prognoza pogody Wrocław

Katowice-Pyrzowice (EPKT)

METAR = EPKT 250430Z 27003KT 9999 SCT015 OVC040 M02/M04 Q0997

STACJA......... EPKT - Katowice-Pyrzowice (KTW)
POMIAR......... Mon Jan 25, 05:30 CET
WIATR.......... zachodni (W) z prędkością 6 km/h
WIDZIALNOŚĆ.... powyżej 10 kilometrów
CHMURY......... zachmurzenie całkowite (8/8)
TEMPERATURA.... -2°C
T.PUNKTU ROSY.. -4°C
WILGOTNOŚĆ..... 86%
T.ODCZUWALNA... -4°C
CIŚNIENIE...... 997 hPa
CIŚN.BEZWZGL... 960 hPa

Sprawdź też: Prognoza pogody Katowice

Gdańsk (EPGD)

METAR = EPGD 250430Z 28010KT 9999 OVC006 00/M00 Q0995 R11/590395

STACJA......... EPGD - Gdańsk im. Lecha Wałęsy (GDN)
POMIAR......... Mon Jan 25, 05:30 CET
WIATR.......... zachodni (W) z prędkością 19 km/h
WIDZIALNOŚĆ.... powyżej 10 kilometrów
CHMURY......... zachmurzenie całkowite (8/8)
TEMPERATURA.... 0°C
T.PUNKTU ROSY.. 0°C
WILGOTNOŚĆ..... 100%
T.ODCZUWALNA... -5°C
CIŚNIENIE...... 995 hPa
CIŚN.BEZWZGL... 977 hPa
PAS STARTOWY... pas nr 11: mokry śnieg na 51-100% pasa, warstwa 3mm, dobra przyczepność hamowania

Sprawdź też: Prognoza pogody Gdańsk

Poznań-Ławica (EPPO)

METAR = EPPO 250430Z 29005KT 3500 BR OVC003 00/M00 Q0998

STACJA......... EPPO - Poznań-Ławica (POZ)
POMIAR......... Mon Jan 25, 05:30 CET
WIATR.......... zachodni północno-zachodni (WNW) z prędkością 9 km/h
WIDZIALNOŚĆ.... 3500 metrów
WARUNKI........ zamglenie 
CHMURY......... zachmurzenie całkowite (8/8)
TEMPERATURA.... 0°C
T.PUNKTU ROSY.. 0°C
WILGOTNOŚĆ..... 100%
T.ODCZUWALNA... -3°C
CIŚNIENIE...... 998 hPa
CIŚN.BEZWZGL... 986 hPa

Sprawdź też: Prognoza pogody Poznań

Rzeszów-Jasionka (EPRZ)

METAR = EPRZ 250430Z 35005KT 1100 R27/2000N SN BR BKN002 00/M00 Q0997

STACJA......... EPRZ - Rzeszów-Jasionka (RZE)
POMIAR......... Mon Jan 25, 05:30 CET
WIATR.......... północny (N) z prędkością 9 km/h
WIDZIALNOŚĆ.... 1100 metrów

Sprawdź też: Prognoza pogody Rzeszów

Szczecin-Goleniów (EPSC)

METAR = EPSC 250430Z 25003KT 220V290 1200 R31/2000N SN BR OVC002 00/M00 Q0998 R13/59//93

STACJA......... EPSC - Szczecin-Goleniów (SZZ)
POMIAR......... Mon Jan 25, 05:30 CET
WIATR.......... zachodni południowo-zachodni (WSW) z prędkością 6 km/h
WIDZIALNOŚĆ.... 1200 metrów

Sprawdź też: Prognoza pogody Szczecin

Lublin-Świdnik (EPLB)

METAR = 

STACJA......... EPLB - Lublin-Świdnik (LUZ)
POMIAR......... Thu Jan 1, 02:00 CET
BŁĄD........... Dane niedostępne.

Sprawdź też: Prognoza pogody Lublin

Bydgoszcz-Szwederowo (EPBY)

METAR = 

STACJA......... EPBY - Bydgoszcz-Szwederowo (BZG)
POMIAR......... Thu Jan 1, 02:00 CET
BŁĄD........... Dane niedostępne.

Sprawdź też: Prognoza pogody Bydgoszcz

Zielona Góra-Babimost (EPZG)

METAR = 

STACJA......... EPZG - Zielona Góra-Babimost (IEG)
POMIAR......... Thu Jan 1, 02:00 CET
BŁĄD........... Dane niedostępne.

Sprawdź też: Prognoza pogody Zielona Góra

Szymany Olsztyn-Mazury (EPSY)

METAR = 

STACJA......... EPSY - Olsztyn-Mazury (SZY)
POMIAR......... Thu Jan 1, 02:00 CET
BŁĄD........... Dane niedostępne.

Sprawdź też: Prognoza pogody Olsztyn